KAUN

Auburn Municipal Airport

Auburn, California, USA
METAR KAUN 200655Z AUTO 10004KT 10SM CLR 01/M04 A3008 RMK AO1
Observed Flight Rules
Feb-20 @ 06:55 UTC (19 minutes ago) Visual Flight Rules
Wind Visibility Clouds
100° at 4 knots 10 miles
  • Clear skies
Temperatures Readings
Current 1°C / 34°F
Dewpoint -4°C / 25°F
Humidity 70%
Altimeter 30.08" Hg
Pressure 1019 hPa
Elevation 467
METAR KAUN 200655Z AUTO 10004KT 10SM CLR 01/M04 A3008 RMK AO1
Observed Flight Rules
Feb-20 @ 06:55 UTC
(19 minutes ago)
VFR
Wind Visibility
100° at 4 knots 10 miles
Clouds
  • Clear skies
Temperature Dewpoint
1°C / 34°F -4°C / 25°F
Humidity Altimeter Pressure
70% 30.08" Hg 1019 hPa